createdAt,value
2023-03-27T00:00:04.358Z,7.30
2023-03-27T00:01:04.186Z,8.00
2023-03-27T00:02:04.183Z,8.10
2023-03-27T00:03:04.245Z,7.80
2023-03-27T00:04:04.171Z,8.00
2023-03-27T00:05:04.090Z,8.20
2023-03-27T00:06:04.101Z,8.00
2023-03-27T00:07:04.116Z,8.30
2023-03-27T00:08:04.059Z,8.90
2023-03-27T00:09:04.069Z,8.30
2023-03-27T00:10:04.087Z,9.20
2023-03-27T00:11:04.018Z,8.80
2023-03-27T00:12:04.011Z,7.80
2023-03-27T00:13:04.085Z,8.20
2023-03-27T00:14:04.018Z,8.40
2023-03-27T00:15:03.977Z,8.50
2023-03-27T00:16:03.969Z,8.90
2023-03-27T00:17:03.964Z,9.20
2023-03-27T00:18:04.001Z,8.90
2023-03-27T00:19:03.950Z,8.80
2023-03-27T00:20:03.928Z,9.20
2023-03-27T00:21:03.900Z,8.90
2023-03-27T00:22:03.903Z,8.80
2023-03-27T00:23:03.861Z,8.90
2023-03-27T00:24:03.849Z,9.30
2023-03-27T00:25:03.904Z,9.00
2023-03-27T00:26:03.824Z,9.40
2023-03-27T00:27:03.823Z,8.60
2023-03-27T00:28:03.825Z,9.00
2023-03-27T00:29:03.788Z,8.60
2023-03-27T00:30:03.818Z,9.30
2023-03-27T00:31:03.840Z,9.40
2023-03-27T00:32:03.760Z,9.30
2023-03-27T00:33:03.803Z,8.40
2023-03-27T00:34:03.759Z,8.70
2023-03-27T00:35:03.746Z,9.60
2023-03-27T00:36:03.850Z,8.00
2023-03-27T00:37:03.709Z,8.90
2023-03-27T00:38:03.682Z,9.50
2023-03-27T00:39:03.671Z,8.70
2023-03-27T00:40:03.731Z,8.70
2023-03-27T00:41:03.688Z,8.60
2023-03-27T00:42:03.634Z,9.40
2023-03-27T00:43:03.649Z,8.30
2023-03-27T00:44:03.607Z,7.60
2023-03-27T00:45:03.615Z,6.50
2023-03-27T00:46:03.678Z,6.50
2023-03-27T00:47:03.565Z,6.50
2023-03-27T00:48:03.624Z,6.40
2023-03-27T00:49:03.530Z,7.20
2023-03-27T00:50:03.592Z,7.20
2023-03-27T00:51:03.504Z,6.70
2023-03-27T00:52:03.516Z,6.30
2023-03-27T00:53:03.484Z,6.60
2023-03-27T00:54:03.582Z,6.60
2023-03-27T00:55:03.511Z,6.00
2023-03-27T00:56:03.446Z,6.20
2023-03-27T00:57:03.492Z,6.30
2023-03-27T00:58:03.428Z,5.30
2023-03-27T00:59:03.431Z,5.40
2023-03-27T01:00:03.453Z,5.30
2023-03-27T01:01:03.429Z,5.70
2023-03-27T01:02:03.369Z,5.30
2023-03-27T01:03:03.470Z,6.00
2023-03-27T01:04:03.362Z,5.30
2023-03-27T01:05:03.363Z,5.40
2023-03-27T01:06:03.349Z,5.40
2023-03-27T01:07:03.312Z,5.50
2023-03-27T01:08:03.295Z,4.30
2023-03-27T01:09:03.276Z,4.70
2023-03-27T01:10:03.304Z,4.20
2023-03-27T01:11:03.268Z,4.10
2023-03-27T01:12:03.244Z,4.50
2023-03-27T01:13:03.238Z,3.90
2023-03-27T01:14:03.214Z,4.40
2023-03-27T01:15:03.221Z,4.10
2023-03-27T01:16:03.248Z,3.90
2023-03-27T01:17:03.172Z,3.90
2023-03-27T01:18:03.197Z,3.90
2023-03-27T01:19:03.170Z,3.90
2023-03-27T01:20:03.194Z,4.30
2023-03-27T01:21:03.142Z,3.50
2023-03-27T01:22:03.143Z,3.90
2023-03-27T01:23:03.102Z,3.30
2023-03-27T01:24:03.109Z,3.90
2023-03-27T01:25:03.083Z,3.50
2023-03-27T01:26:03.161Z,3.90
2023-03-27T01:27:03.060Z,4.00
2023-03-27T01:28:03.086Z,3.90
2023-03-27T01:29:03.041Z,3.80
2023-03-27T01:30:03.025Z,3.90
2023-03-27T01:31:03.065Z,4.10
2023-03-27T01:32:03.003Z,4.30
2023-03-27T01:33:03.012Z,4.70
2023-03-27T01:34:02.957Z,4.20
2023-03-27T01:35:03.665Z,3.50
2023-03-27T01:36:03.003Z,4.00
2023-03-27T01:37:02.928Z,4.00
2023-03-27T01:38:02.936Z,4.20
2023-03-27T01:39:02.899Z,4.30
2023-03-27T01:40:02.892Z,4.70
2023-03-27T01:41:02.888Z,4.70
2023-03-27T01:42:02.852Z,5.00
2023-03-27T01:43:02.846Z,6.00
2023-03-27T01:44:02.875Z,4.90
2023-03-27T01:45:02.853Z,4.80
2023-03-27T01:46:02.804Z,5.40
2023-03-27T01:47:02.890Z,5.10
2023-03-27T01:48:02.799Z,5.00
2023-03-27T01:49:02.767Z,4.90
2023-03-27T01:50:02.785Z,6.00
2023-03-27T01:51:02.775Z,5.20
2023-03-27T01:52:02.735Z,5.20
2023-03-27T01:53:02.711Z,6.00
2023-03-27T01:54:02.731Z,5.20
2023-03-27T01:55:02.718Z,5.10
2023-03-27T01:56:02.715Z,5.10
2023-03-27T01:57:02.857Z,5.50
2023-03-27T01:58:02.645Z,5.70
2023-03-27T01:59:02.656Z,5.00
2023-03-27T02:00:18.562Z,5.70
2023-03-27T02:01:02.759Z,5.10
2023-03-27T02:02:02.637Z,5.30
2023-03-27T02:03:02.619Z,6.00
2023-03-27T02:04:02.576Z,5.40
2023-03-27T02:05:02.609Z,5.40
2023-03-27T02:06:02.832Z,5.70
2023-03-27T02:07:02.608Z,5.70
2023-03-27T02:08:02.533Z,6.20
2023-03-27T02:09:02.532Z,5.70
2023-03-27T02:10:02.504Z,5.80
2023-03-27T02:11:02.524Z,5.60
2023-03-27T02:12:02.492Z,6.10
2023-03-27T02:13:02.486Z,5.80
2023-03-27T02:14:02.445Z,5.80
2023-03-27T02:15:23.994Z,5.10
2023-03-27T02:16:02.534Z,5.60
2023-03-27T02:18:12.615Z,5.80
2023-03-27T02:19:13.602Z,6.50
2023-03-27T02:20:13.573Z,5.70
2023-03-27T02:21:13.575Z,5.50
2023-03-27T02:22:13.552Z,5.90
2023-03-27T02:23:13.537Z,5.70
2023-03-27T02:24:13.529Z,6.10
2023-03-27T02:25:13.509Z,5.80
2023-03-27T02:26:13.554Z,5.80
2023-03-27T02:27:13.493Z,5.70
2023-03-27T02:28:13.471Z,5.30
2023-03-27T02:29:13.466Z,5.50
2023-03-27T02:30:13.470Z,5.70
2023-03-27T02:31:33.628Z,5.40
2023-03-27T02:32:13.456Z,5.20
2023-03-27T02:33:13.436Z,5.50
2023-03-27T02:34:13.409Z,5.70
2023-03-27T02:35:13.389Z,5.50
2023-03-27T02:36:13.369Z,5.70
2023-03-27T02:37:13.379Z,6.00
2023-03-27T02:38:13.363Z,5.90
2023-03-27T02:39:13.338Z,5.20
2023-03-27T02:40:13.312Z,5.90
2023-03-27T02:41:13.318Z,5.70
2023-03-27T02:42:13.312Z,5.30
2023-03-27T02:43:13.291Z,5.70
2023-03-27T02:44:13.270Z,5.40
2023-03-27T02:45:13.270Z,5.50
2023-03-27T02:46:13.267Z,6.00
2023-03-27T02:47:13.262Z,6.00
2023-03-27T02:48:13.270Z,5.60
2023-03-27T02:49:13.217Z,5.30
2023-03-27T02:50:13.196Z,5.30
2023-03-27T02:51:13.204Z,5.80
2023-03-27T02:52:13.173Z,6.30
2023-03-27T02:53:13.160Z,6.60
2023-03-27T02:54:13.150Z,5.20
2023-03-27T02:55:13.141Z,5.20
2023-03-27T02:56:13.197Z,5.50
2023-03-27T02:57:13.161Z,4.80
2023-03-27T02:58:13.106Z,4.30
2023-03-27T02:59:13.093Z,4.60
2023-03-27T03:00:13.075Z,5.20
2023-03-27T03:01:13.109Z,4.70
2023-03-27T03:02:13.113Z,4.00
2023-03-27T03:03:13.145Z,4.50
2023-03-27T03:04:13.019Z,4.50
2023-03-27T03:05:13.018Z,4.00
2023-03-27T03:06:12.991Z,4.20
2023-03-27T03:07:12.996Z,4.60
2023-03-27T03:08:13.027Z,3.60
2023-03-27T03:09:12.958Z,4.00
2023-03-27T03:10:12.956Z,3.50
2023-03-27T03:11:12.930Z,3.50
2023-03-27T03:12:12.925Z,3.70
2023-03-27T03:13:12.930Z,3.50
2023-03-27T03:14:12.883Z,3.60
2023-03-27T03:15:12.898Z,3.80
2023-03-27T03:16:12.880Z,4.20
2023-03-27T03:17:12.865Z,3.60
2023-03-27T03:18:12.859Z,3.60
2023-03-27T03:19:12.828Z,3.40
2023-03-27T03:20:12.817Z,3.30
2023-03-27T03:21:12.808Z,3.60
2023-03-27T03:22:12.777Z,3.40
2023-03-27T03:23:12.791Z,3.50
2023-03-27T03:24:12.776Z,3.50
2023-03-27T03:25:12.753Z,3.40
2023-03-27T03:26:12.731Z,3.30
2023-03-27T03:27:12.800Z,3.00
2023-03-27T03:28:12.719Z,3.20
2023-03-27T03:29:13.022Z,3.30
2023-03-27T03:30:16.822Z,3.30
2023-03-27T03:31:12.689Z,3.50
2023-03-27T03:32:12.656Z,3.50
2023-03-27T03:33:12.662Z,3.30
2023-03-27T03:34:12.667Z,3.50
2023-03-27T03:35:12.646Z,3.00
2023-03-27T03:36:12.601Z,2.70
2023-03-27T03:37:12.592Z,3.20
2023-03-27T03:38:12.601Z,3.30
2023-03-27T03:39:12.912Z,3.10
2023-03-27T03:40:12.566Z,2.90
2023-03-27T03:41:12.548Z,2.80
2023-03-27T03:42:22.835Z,3.10
2023-03-27T03:43:12.536Z,2.60
2023-03-27T03:44:12.504Z,2.30
2023-03-27T03:45:12.496Z,3.10
2023-03-27T03:46:12.581Z,2.30
2023-03-27T03:47:12.505Z,2.70
2023-03-27T03:48:12.468Z,2.50
2023-03-27T03:49:12.429Z,2.40
2023-03-27T03:50:12.426Z,2.70
2023-03-27T03:51:12.414Z,2.50
2023-03-27T03:52:12.400Z,2.50
2023-03-27T03:53:12.405Z,2.40
2023-03-27T03:54:12.382Z,2.40
2023-03-27T03:55:12.383Z,2.30
2023-03-27T03:56:12.329Z,2.50
2023-03-27T03:57:12.408Z,2.80
2023-03-27T03:58:12.340Z,2.90
2023-03-27T03:59:12.327Z,2.30
2023-03-27T04:00:12.317Z,2.40
2023-03-27T04:01:12.284Z,2.90
2023-03-27T04:02:12.563Z,2.40
2023-03-27T04:03:12.313Z,2.60
2023-03-27T04:04:12.235Z,2.20
2023-03-27T04:05:12.228Z,2.40
2023-03-27T04:06:12.217Z,2.50
2023-03-27T04:07:12.262Z,2.40
2023-03-27T04:08:12.176Z,2.50
2023-03-27T04:09:12.182Z,2.20
2023-03-27T04:10:12.165Z,2.40
2023-03-27T04:11:12.141Z,2.70
2023-03-27T04:12:12.149Z,2.40
2023-03-27T04:13:12.147Z,2.60
2023-03-27T04:14:12.103Z,2.20
2023-03-27T04:15:12.108Z,2.30
2023-03-27T04:16:12.138Z,2.00
2023-03-27T04:17:12.160Z,2.10
2023-03-27T04:18:12.185Z,2.50
2023-03-27T04:19:12.053Z,2.40
2023-03-27T04:20:12.060Z,2.50
2023-03-27T04:21:12.012Z,2.60
2023-03-27T04:22:12.000Z,2.30
2023-03-27T04:23:11.998Z,2.20
2023-03-27T04:24:11.972Z,2.30
2023-03-27T04:25:11.986Z,2.00
2023-03-27T04:26:12.185Z,2.40
2023-03-27T04:27:11.979Z,2.30
2023-03-27T04:28:11.970Z,2.50
2023-03-27T04:29:11.982Z,3.20
2023-03-27T04:30:11.928Z,2.60
2023-03-27T04:31:11.935Z,2.20
2023-03-27T04:32:11.879Z,2.80
2023-03-27T04:33:11.874Z,2.30
2023-03-27T04:34:11.873Z,2.20
2023-03-27T04:35:11.848Z,2.50
2023-03-27T04:36:11.835Z,2.20
2023-03-27T04:37:11.806Z,2.20
2023-03-27T04:38:11.796Z,2.50
2023-03-27T04:39:11.806Z,2.30
2023-03-27T04:40:11.806Z,2.30
2023-03-27T04:41:11.771Z,2.60
2023-03-27T04:42:11.755Z,2.70
2023-03-27T04:43:11.766Z,2.60
2023-03-27T04:44:11.741Z,2.40
2023-03-27T04:45:11.707Z,2.20
2023-03-27T04:46:11.687Z,2.60
2023-03-27T04:47:11.705Z,2.20
2023-03-27T04:48:11.743Z,2.20
2023-03-27T04:49:11.675Z,2.50
2023-03-27T04:50:11.693Z,2.80
2023-03-27T04:51:11.593Z,2.40
2023-03-27T04:52:11.570Z,2.00
2023-03-27T04:53:11.559Z,2.80
2023-03-27T04:54:11.570Z,2.60
2023-03-27T04:55:11.530Z,2.50
2023-03-27T04:56:11.511Z,2.70
2023-03-27T04:57:11.542Z,2.40
2023-03-27T04:58:11.479Z,2.40
2023-03-27T04:59:11.494Z,2.50
2023-03-27T05:00:11.482Z,2.50
2023-03-27T05:01:11.502Z,2.50
2023-03-27T05:02:11.442Z,2.80
2023-03-27T05:03:11.481Z,2.20
2023-03-27T05:04:11.460Z,2.80
2023-03-27T05:05:11.408Z,2.70
2023-03-27T05:06:11.529Z,2.40
2023-03-27T05:07:11.366Z,2.30
2023-03-27T05:08:11.406Z,2.50
2023-03-27T05:09:11.402Z,3.30
2023-03-27T05:10:11.351Z,2.30
2023-03-27T05:11:11.369Z,2.30
2023-03-27T05:12:11.314Z,2.60
2023-03-27T05:13:11.676Z,2.80
2023-03-27T05:14:11.277Z,2.50
2023-03-27T05:15:11.267Z,2.50
2023-03-27T05:16:11.334Z,2.70
2023-03-27T05:17:11.257Z,2.50
2023-03-27T05:18:11.280Z,2.60
2023-03-27T05:19:11.215Z,2.60
2023-03-27T05:20:11.208Z,3.10
2023-03-27T05:21:11.196Z,2.70
2023-03-27T05:22:11.188Z,2.90
2023-03-27T05:23:11.198Z,2.40
2023-03-27T05:24:11.207Z,2.60
2023-03-27T05:25:11.161Z,2.40
2023-03-27T05:26:11.122Z,2.50
2023-03-27T05:27:11.126Z,2.30
2023-03-27T05:28:11.335Z,2.40
2023-03-27T05:29:11.113Z,2.60
2023-03-27T05:30:11.082Z,2.70
2023-03-27T05:31:11.157Z,2.60
2023-03-27T05:32:11.045Z,2.30
2023-03-27T05:33:11.043Z,2.60
2023-03-27T05:34:11.062Z,2.40
2023-03-27T05:35:11.017Z,2.50
2023-03-27T05:36:11.003Z,3.10
2023-03-27T05:37:11.003Z,3.00
2023-03-27T05:38:10.977Z,2.60
2023-03-27T05:39:11.046Z,2.20
2023-03-27T05:40:10.945Z,2.20
2023-03-27T05:41:10.983Z,2.40
2023-03-27T05:42:10.914Z,2.20
2023-03-27T05:43:10.914Z,2.50
2023-03-27T05:44:10.920Z,2.50
2023-03-27T05:45:10.902Z,2.30
2023-03-27T05:46:10.937Z,2.40
2023-03-27T05:47:10.876Z,2.30
2023-03-27T05:48:10.875Z,2.30
2023-03-27T05:49:10.866Z,2.40
2023-03-27T05:50:10.816Z,2.00
2023-03-27T05:51:10.821Z,2.30
2023-03-27T05:52:10.838Z,2.50
2023-03-27T05:53:10.774Z,2.20
2023-03-27T05:54:10.834Z,2.60
2023-03-27T05:55:10.791Z,2.40
2023-03-27T05:56:10.744Z,2.40
2023-03-27T05:57:10.806Z,2.60
2023-03-27T05:58:10.730Z,2.70
2023-03-27T05:59:10.754Z,3.50
2023-03-27T06:00:10.769Z,2.60
2023-03-27T06:01:10.692Z,2.70
2023-03-27T06:02:10.707Z,2.60
2023-03-27T06:03:10.852Z,2.40
2023-03-27T06:04:10.791Z,2.50
2023-03-27T06:05:10.644Z,2.90
2023-03-27T06:06:10.641Z,2.50
2023-03-27T06:07:10.608Z,2.30
2023-03-27T06:08:10.586Z,2.80
2023-03-27T06:09:10.617Z,3.10
2023-03-27T06:10:13.705Z,2.20
2023-03-27T06:11:10.550Z,2.40
2023-03-27T06:12:10.557Z,2.90
2023-03-27T06:13:10.523Z,2.50
2023-03-27T06:14:10.546Z,2.80
2023-03-27T06:15:10.551Z,2.60
2023-03-27T06:16:10.640Z,2.30
2023-03-27T06:17:10.491Z,2.50
2023-03-27T06:18:10.544Z,2.50
2023-03-27T06:19:10.453Z,2.50
2023-03-27T06:20:10.426Z,2.90
2023-03-27T06:21:10.454Z,2.20
2023-03-27T06:22:10.417Z,2.40
2023-03-27T06:23:10.412Z,2.90
2023-03-27T06:24:10.422Z,2.20
2023-03-27T06:25:10.395Z,2.40
2023-03-27T06:26:10.373Z,2.20
2023-03-27T06:27:10.963Z,2.30
2023-03-27T06:28:10.381Z,2.60
2023-03-27T06:29:10.363Z,2.20
2023-03-27T06:30:10.319Z,2.80
2023-03-27T06:31:10.348Z,2.50
2023-03-27T06:32:10.289Z,2.30
2023-03-27T06:33:10.333Z,2.40
2023-03-27T06:34:10.266Z,2.50
2023-03-27T06:35:10.279Z,2.90
2023-03-27T06:36:10.249Z,3.00
2023-03-27T06:37:10.248Z,3.00
2023-03-27T06:38:10.205Z,2.40
2023-03-27T06:39:10.229Z,2.90
2023-03-27T06:40:10.188Z,2.30
2023-03-27T06:41:10.167Z,2.50
2023-03-27T06:42:10.167Z,2.40
2023-03-27T06:43:10.146Z,2.20
2023-03-27T06:44:10.143Z,2.80
2023-03-27T06:45:10.147Z,2.50
2023-03-27T06:46:10.120Z,2.50
2023-03-27T06:47:10.137Z,2.60
2023-03-27T06:48:18.020Z,2.50
2023-03-27T06:49:10.078Z,2.40
2023-03-27T06:50:10.113Z,2.70
2023-03-27T06:51:10.033Z,2.40
2023-03-27T06:52:10.040Z,2.40
2023-03-27T06:53:19.673Z,2.50
2023-03-27T06:54:10.025Z,3.10
2023-03-27T06:55:15.116Z,2.40
2023-03-27T06:56:09.974Z,2.60
2023-03-27T06:57:10.011Z,2.60
2023-03-27T06:58:09.950Z,2.40
2023-03-27T06:59:09.929Z,2.40
2023-03-27T07:00:09.978Z,2.80
2023-03-27T07:01:09.903Z,2.80
2023-03-27T07:02:09.946Z,2.50
2023-03-27T07:03:09.903Z,2.50
2023-03-27T07:04:09.858Z,2.50
2023-03-27T07:05:09.934Z,2.50
2023-03-27T07:06:09.891Z,3.00
2023-03-27T07:07:09.826Z,2.50
2023-03-27T07:08:21.737Z,2.60
2023-03-27T07:09:09.800Z,3.00
2023-03-27T07:10:09.821Z,2.50
2023-03-27T07:11:12.134Z,2.40
2023-03-27T07:12:09.762Z,2.50
2023-03-27T07:13:09.744Z,2.80
2023-03-27T07:14:09.742Z,3.00
2023-03-27T07:15:09.756Z,2.20
2023-03-27T07:16:09.715Z,2.50
2023-03-27T07:17:09.705Z,2.20
2023-03-27T07:18:09.742Z,2.30
2023-03-27T07:19:09.659Z,2.40
2023-03-27T07:20:09.750Z,2.50
2023-03-27T07:21:09.663Z,2.20
2023-03-27T07:22:09.642Z,2.50
2023-03-27T07:23:09.606Z,2.20
2023-03-27T07:24:09.601Z,2.00
2023-03-27T07:25:09.597Z,2.40
2023-03-27T07:26:09.580Z,2.30
2023-03-27T07:27:09.620Z,2.50
2023-03-27T07:28:09.553Z,2.40
2023-03-27T07:29:09.526Z,3.00
2023-03-27T07:30:09.549Z,2.00
2023-03-27T07:31:16.661Z,2.40
2023-03-27T07:32:09.686Z,2.40
2023-03-27T07:33:09.616Z,2.50
2023-03-27T07:34:09.576Z,2.70
2023-03-27T07:35:09.501Z,2.80
2023-03-27T07:36:09.526Z,2.40
2023-03-27T07:37:09.435Z,2.50
2023-03-27T07:38:09.433Z,2.30
2023-03-27T07:39:09.392Z,2.40
2023-03-27T07:40:09.421Z,2.20
2023-03-27T07:41:09.386Z,2.50
2023-03-27T07:42:09.386Z,2.30
2023-03-27T07:43:09.356Z,2.70
2023-03-27T07:44:09.350Z,2.60
2023-03-27T07:45:09.374Z,2.90
2023-03-27T07:46:09.394Z,2.40
2023-03-27T07:47:09.348Z,2.90
2023-03-27T07:48:09.305Z,2.40
2023-03-27T07:49:09.296Z,2.40
2023-03-27T07:50:09.309Z,2.30
2023-03-27T07:51:13.754Z,2.40
2023-03-27T07:52:09.247Z,1.90
2023-03-27T07:53:09.280Z,2.00
2023-03-27T07:54:09.262Z,2.80
2023-03-27T07:55:09.240Z,2.00
2023-03-27T07:56:09.195Z,2.50
2023-03-27T07:57:09.308Z,2.40
2023-03-27T07:58:09.254Z,2.30
2023-03-27T07:59:09.151Z,2.10
2023-03-27T08:00:09.174Z,2.20
2023-03-27T08:01:09.132Z,2.30
2023-03-27T08:02:09.111Z,2.70
2023-03-27T08:03:09.327Z,2.20
2023-03-27T08:04:09.254Z,2.20
2023-03-27T08:05:09.194Z,2.20
2023-03-27T08:06:09.077Z,2.00
2023-03-27T08:07:09.041Z,2.10
2023-03-27T08:08:09.034Z,2.10
2023-03-27T08:09:09.033Z,2.10
2023-03-27T08:10:09.042Z,2.50
2023-03-27T08:11:16.390Z,2.40
2023-03-27T08:12:08.988Z,2.00
2023-03-27T08:13:08.975Z,2.00
2023-03-27T08:14:08.964Z,2.60
2023-03-27T08:15:08.994Z,2.00
2023-03-27T08:16:08.956Z,2.40
2023-03-27T08:17:15.574Z,2.30
2023-03-27T08:18:08.976Z,2.10
2023-03-27T08:20:24.992Z,2.30
2023-03-27T08:21:25.941Z,2.60
2023-03-27T08:22:25.960Z,2.30
2023-03-27T08:23:25.919Z,2.40
2023-03-27T08:24:25.986Z,2.60
2023-03-27T08:25:27.433Z,2.00
2023-03-27T08:26:25.944Z,2.30
2023-03-27T08:27:25.931Z,2.60
2023-03-27T08:28:25.864Z,2.20
2023-03-27T08:29:25.858Z,2.10
2023-03-27T08:30:25.874Z,2.30
2023-03-27T08:31:25.964Z,2.50
2023-03-27T08:32:25.878Z,2.60
2023-03-27T08:33:25.980Z,2.20
2023-03-27T08:34:25.793Z,2.10
2023-03-27T08:35:25.906Z,2.10
2023-03-27T08:36:25.767Z,2.80
2023-03-27T08:37:25.754Z,2.30
2023-03-27T08:38:27.014Z,2.10
2023-03-27T08:39:25.738Z,2.10
2023-03-27T08:40:25.762Z,2.20
2023-03-27T08:41:25.690Z,2.30
2023-03-27T08:42:25.711Z,2.10
2023-03-27T08:43:25.660Z,2.00
2023-03-27T08:44:25.698Z,1.90
2023-03-27T08:45:25.775Z,2.00
2023-03-27T08:46:25.698Z,2.40
2023-03-27T08:47:25.727Z,2.10
2023-03-27T08:48:25.597Z,2.10
2023-03-27T08:49:25.597Z,2.00
2023-03-27T08:50:25.622Z,1.80
2023-03-27T08:51:25.580Z,2.20
2023-03-27T08:52:25.539Z,2.10
2023-03-27T08:53:26.370Z,2.10
2023-03-27T08:54:25.541Z,2.20
2023-03-27T08:55:25.562Z,1.90
2023-03-27T08:56:25.580Z,1.90
2023-03-27T08:57:25.490Z,2.10
2023-03-27T08:58:25.483Z,1.80
2023-03-27T08:59:25.490Z,2.30
2023-03-27T09:00:25.468Z,1.60
2023-03-27T09:01:25.444Z,1.80
2023-03-27T09:02:25.510Z,2.30
2023-03-27T09:03:25.462Z,1.70
2023-03-27T09:04:25.417Z,1.90
2023-03-27T09:05:25.430Z,1.60
2023-03-27T09:06:25.403Z,2.00
2023-03-27T09:07:25.360Z,1.90
2023-03-27T09:08:25.371Z,2.10
2023-03-27T09:09:25.336Z,2.00
2023-03-27T09:10:25.342Z,1.90
2023-03-27T09:11:25.339Z,2.40
2023-03-27T09:12:25.284Z,1.70
2023-03-27T09:13:25.267Z,1.70
2023-03-27T09:14:25.374Z,1.70
2023-03-27T09:15:25.262Z,1.90
2023-03-27T09:16:25.298Z,1.70
2023-03-27T09:17:25.297Z,1.60
2023-03-27T09:18:25.246Z,2.00
2023-03-27T09:19:25.198Z,1.90
2023-03-27T09:20:25.190Z,1.50
2023-03-27T09:21:25.194Z,1.60
2023-03-27T09:22:25.175Z,1.60
2023-03-27T09:23:25.180Z,2.50
2023-03-27T09:24:25.131Z,1.80
2023-03-27T09:25:25.137Z,1.70
2023-03-27T09:26:25.145Z,1.70
2023-03-27T09:27:25.137Z,1.80
2023-03-27T09:28:25.109Z,1.50
2023-03-27T09:29:25.104Z,1.70
2023-03-27T09:30:25.091Z,1.70
2023-03-27T09:31:25.270Z,1.80
2023-03-27T09:32:25.037Z,1.80
2023-03-27T09:33:25.044Z,1.70
2023-03-27T09:34:25.001Z,1.70
2023-03-27T09:35:25.004Z,2.40
2023-03-27T09:36:25.064Z,1.70
2023-03-27T09:37:24.954Z,1.60
2023-03-27T09:38:24.955Z,1.50
2023-03-27T09:39:25.031Z,1.80
2023-03-27T09:40:24.929Z,1.90
2023-03-27T09:41:24.933Z,1.50
2023-03-27T09:42:24.913Z,1.70
2023-03-27T09:43:24.936Z,1.60
2023-03-27T09:44:24.876Z,1.60
2023-03-27T09:45:24.902Z,1.60
2023-03-27T09:46:24.906Z,2.00
2023-03-27T09:47:24.876Z,1.60
2023-03-27T09:48:24.813Z,1.80
2023-03-27T09:49:24.804Z,1.60
2023-03-27T09:50:27.378Z,1.60
2023-03-27T09:51:24.796Z,1.80
2023-03-27T09:52:24.786Z,1.80
2023-03-27T09:53:24.751Z,1.80
2023-03-27T09:54:24.736Z,1.80
2023-03-27T09:55:24.783Z,1.50
2023-03-27T09:56:24.711Z,1.50
2023-03-27T09:57:24.717Z,1.60
2023-03-27T09:58:24.707Z,1.80
2023-03-27T09:59:24.741Z,1.50
2023-03-27T10:00:24.664Z,1.40
2023-03-27T10:01:24.690Z,1.90
2023-03-27T10:02:24.814Z,1.30
2023-03-27T10:03:24.763Z,1.50
2023-03-27T10:04:24.617Z,1.60
2023-03-27T10:05:24.591Z,1.60
2023-03-27T10:06:24.606Z,1.90
2023-03-27T10:07:24.574Z,1.50
2023-03-27T10:08:27.095Z,1.60
2023-03-27T10:09:24.565Z,1.70
2023-03-27T10:10:24.529Z,1.60
2023-03-27T10:11:24.586Z,1.60
2023-03-27T10:12:24.523Z,1.60
2023-03-27T10:13:24.535Z,1.50
2023-03-27T10:14:24.516Z,1.50
2023-03-27T10:15:24.467Z,1.50
2023-03-27T10:16:24.525Z,1.30
2023-03-27T10:17:24.529Z,1.50
2023-03-27T10:18:24.439Z,1.50
2023-03-27T10:19:24.412Z,1.50
2023-03-27T10:20:24.416Z,1.30
2023-03-27T10:21:24.450Z,1.20
2023-03-27T10:22:24.406Z,1.40
2023-03-27T10:23:24.398Z,1.40
2023-03-27T10:24:24.345Z,1.40
2023-03-27T10:25:24.384Z,1.40
2023-03-27T10:26:24.379Z,1.40
2023-03-27T10:27:24.345Z,1.30
2023-03-27T10:28:24.311Z,1.60
2023-03-27T10:29:24.336Z,1.50
2023-03-27T10:30:24.298Z,1.80
2023-03-27T10:31:24.351Z,1.40
2023-03-27T10:32:24.323Z,1.40
2023-03-27T10:33:24.243Z,1.20
2023-03-27T10:34:24.231Z,1.30
2023-03-27T10:35:24.307Z,1.30
2023-03-27T10:36:24.222Z,1.40
2023-03-27T10:37:24.212Z,1.30
2023-03-27T10:38:24.159Z,1.60
2023-03-27T10:39:24.199Z,1.30
2023-03-27T10:40:24.155Z,1.30
2023-03-27T10:41:29.033Z,1.50
2023-03-27T10:42:24.169Z,1.20
2023-03-27T10:43:24.096Z,1.20
2023-03-27T10:44:24.092Z,1.40
2023-03-27T10:45:24.067Z,1.40
2023-03-27T10:46:24.118Z,1.60
2023-03-27T10:47:24.068Z,1.40
2023-03-27T10:48:24.040Z,1.40
2023-03-27T10:49:24.014Z,1.50
2023-03-27T10:50:24.040Z,1.40
2023-03-27T10:51:28.413Z,1.40
2023-03-27T10:52:24.061Z,1.40
2023-03-27T10:53:24.043Z,1.70
2023-03-27T10:54:23.998Z,1.40
2023-03-27T10:55:23.985Z,1.60
2023-03-27T10:56:23.941Z,1.80
2023-03-27T10:57:23.991Z,1.70
2023-03-27T10:58:23.920Z,1.60
2023-03-27T10:59:34.784Z,1.60
2023-03-27T11:00:23.878Z,1.40
2023-03-27T11:01:23.939Z,1.50
2023-03-27T11:02:23.843Z,1.40
2023-03-27T11:03:23.871Z,1.50
2023-03-27T11:04:23.880Z,1.40
2023-03-27T11:05:23.890Z,1.30
2023-03-27T11:06:23.796Z,1.20
2023-03-27T11:07:23.820Z,1.70
2023-03-27T11:08:23.837Z,1.60
2023-03-27T11:09:24.329Z,1.30
2023-03-27T11:10:23.746Z,1.20
2023-03-27T11:11:23.745Z,1.50
2023-03-27T11:12:23.772Z,1.50
2023-03-27T11:13:23.732Z,1.50
2023-03-27T11:14:23.753Z,1.60
2023-03-27T11:15:23.671Z,1.40
2023-03-27T11:16:23.707Z,1.40
2023-03-27T11:17:23.668Z,1.40
2023-03-27T11:18:23.672Z,1.50
2023-03-27T11:19:23.617Z,1.50
2023-03-27T11:20:26.264Z,1.20
2023-03-27T11:21:23.610Z,1.40
2023-03-27T11:22:23.583Z,1.30
2023-03-27T11:23:23.610Z,1.40
2023-03-27T11:24:23.629Z,1.20
2023-03-27T11:25:23.554Z,1.30
2023-03-27T11:26:23.561Z,1.50
2023-03-27T11:27:23.521Z,1.30
2023-03-27T11:28:23.535Z,1.60
2023-03-27T11:29:23.488Z,1.30
2023-03-27T11:30:23.477Z,1.50
2023-03-27T11:31:23.544Z,1.30
2023-03-27T11:32:23.482Z,1.20
2023-03-27T11:33:23.441Z,1.20
2023-03-27T11:34:29.067Z,1.20
2023-03-27T11:35:23.409Z,1.30
2023-03-27T11:36:23.390Z,1.40
2023-03-27T11:37:23.423Z,1.30
2023-03-27T11:38:23.415Z,1.20
2023-03-27T11:39:23.362Z,1.40
2023-03-27T11:40:23.381Z,1.20
2023-03-27T11:41:23.320Z,1.40
2023-03-27T11:42:23.315Z,1.30
2023-03-27T11:43:23.363Z,1.40
2023-03-27T11:44:23.305Z,1.30
2023-03-27T11:45:23.309Z,1.40
2023-03-27T11:46:23.491Z,1.30
2023-03-27T11:47:23.494Z,1.10
2023-03-27T11:48:23.262Z,1.50
2023-03-27T11:49:23.222Z,1.40
2023-03-27T11:50:23.231Z,1.30
2023-03-27T11:51:23.226Z,1.20
2023-03-27T11:52:23.216Z,1.50
2023-03-27T11:53:23.246Z,1.00
2023-03-27T11:54:23.180Z,1.30
2023-03-27T11:55:23.149Z,1.50
2023-03-27T11:56:23.124Z,1.30
2023-03-27T11:57:23.262Z,1.20
2023-03-27T11:58:23.138Z,1.20
2023-03-27T11:59:23.108Z,1.20
2023-03-27T12:00:23.144Z,1.30
2023-03-27T12:01:23.216Z,1.20
2023-03-27T12:02:23.188Z,1.30
2023-03-27T12:03:23.214Z,1.00
2023-03-27T12:04:23.095Z,1.30
2023-03-27T12:05:23.017Z,1.20
2023-03-27T12:06:23.070Z,1.30
2023-03-27T12:07:35.313Z,1.30
2023-03-27T12:08:23.960Z,1.10
2023-03-27T12:09:22.952Z,1.20
2023-03-27T12:10:28.434Z,1.30
2023-03-27T12:11:22.967Z,1.20
2023-03-27T12:12:22.918Z,1.40
2023-03-27T12:13:28.736Z,1.30
2023-03-27T12:14:28.263Z,1.10
2023-03-27T12:15:22.880Z,1.30
2023-03-27T12:16:22.878Z,1.20
2023-03-27T12:17:22.864Z,1.20
2023-03-27T12:18:32.306Z,1.10
2023-03-27T12:20:22.808Z,1.00
2023-03-27T12:21:22.824Z,1.10
2023-03-27T12:22:24.236Z,1.20
2023-03-27T12:23:22.794Z,1.20
2023-03-27T12:24:22.801Z,1.20
2023-03-27T12:25:23.036Z,1.30
2023-03-27T12:26:25.161Z,1.30
2023-03-27T12:27:23.550Z,1.20
2023-03-27T12:28:27.843Z,1.50
2023-03-27T12:29:24.331Z,1.30
2023-03-27T12:30:22.861Z,1.40
2023-03-27T12:31:22.837Z,1.30
2023-03-27T12:32:22.784Z,1.30
2023-03-27T12:33:22.681Z,1.30
2023-03-27T12:34:22.668Z,1.30
2023-03-27T12:35:22.634Z,1.30
2023-03-27T12:36:22.616Z,1.50
2023-03-27T12:37:22.590Z,1.30
2023-03-27T12:38:22.587Z,1.40
2023-03-27T12:39:22.585Z,1.40
2023-03-27T12:40:22.582Z,1.40
2023-03-27T12:41:22.576Z,1.30
2023-03-27T12:42:22.523Z,1.40
2023-03-27T12:43:22.531Z,1.60
2023-03-27T12:44:22.596Z,1.60
2023-03-27T12:45:22.549Z,1.50
2023-03-27T12:46:22.520Z,1.30
2023-03-27T12:47:22.515Z,1.50
2023-03-27T12:48:22.446Z,1.50
2023-03-27T12:49:22.532Z,1.60
2023-03-27T12:50:23.521Z,1.40
2023-03-27T12:51:22.979Z,1.50
2023-03-27T12:52:22.623Z,1.50
2023-03-27T12:53:24.840Z,1.50
2023-03-27T12:54:23.715Z,1.50
2023-03-27T12:55:23.918Z,1.50
2023-03-27T12:56:23.087Z,1.40
2023-03-27T12:57:26.243Z,1.50
2023-03-27T12:58:22.526Z,1.20
2023-03-27T12:59:23.107Z,1.20
2023-03-27T13:00:22.549Z,1.40
2023-03-27T13:01:22.404Z,1.40
2023-03-27T13:02:22.497Z,1.70
2023-03-27T13:03:22.455Z,1.70
2023-03-27T13:04:22.567Z,1.50
2023-03-27T13:05:27.331Z,1.80
2023-03-27T13:06:22.224Z,1.60
2023-03-27T13:07:22.276Z,1.50
2023-03-27T13:08:22.299Z,1.60
2023-03-27T13:09:22.203Z,1.60
2023-03-27T13:10:22.159Z,1.50
2023-03-27T13:11:22.198Z,1.60
2023-03-27T13:12:22.137Z,1.70
2023-03-27T13:13:22.119Z,1.70
2023-03-27T13:14:22.330Z,1.70
2023-03-27T13:15:22.226Z,1.60
2023-03-27T13:16:22.099Z,1.60
2023-03-27T13:17:22.067Z,1.40
2023-03-27T13:18:22.088Z,1.60
2023-03-27T13:19:24.146Z,1.50
2023-03-27T13:20:22.372Z,1.30
2023-03-27T13:21:25.703Z,1.50